Time;durP1;ratioP1;P1;durP2;ratioP2;P2;SDS_P1;SDS_P2;PMS_P1;PMS_P2;Temp;Humidity;BMP_temperature;BMP_pressure;BME280_temperature;BME280_humidity;BME280_pressure;Samples;Min_cycle;Max_cycle;Signal;HPM_P1;HPM_P2
2024/02/01 00:01:22;;;;;;;9.53;4.63;;;10.70;99.90;;;;;;7295106;19;20629;-80
2024/02/01 00:03:48;;;;;;;14.63;4.93;;;10.60;99.90;;;;;;7297826;19;20644;-79
2024/02/01 00:06:15;;;;;;;13.63;4.70;;;10.80;99.90;;;;;;7276782;19;20193;-80
2024/02/01 00:08:41;;;;;;;12.60;5.10;;;10.80;99.90;;;;;;7276626;19;20200;-79
2024/02/01 00:11:07;;;;;;;12.70;4.73;;;10.90;99.90;;;;;;7276894;19;20199;-79
2024/02/01 00:13:33;;;;;;;13.73;5.00;;;11.00;99.90;;;;;;7275515;19;20225;-79
2024/02/01 00:15:59;;;;;;;14.87;5.53;;;11.00;99.90;;;;;;7273543;19;20187;-79
2024/02/01 00:18:25;;;;;;;15.17;5.20;;;10.90;99.90;;;;;;7276630;19;20191;-79
2024/02/01 00:20:50;;;;;;;16.10;5.67;;;10.90;99.90;;;;;;7297806;19;20201;-78
2024/02/01 00:23:16;;;;;;;16.13;5.47;;;10.90;99.90;;;;;;7274459;19;20207;-78
2024/02/01 00:25:42;;;;;;;17.03;5.53;;;10.90;99.90;;;;;;7275491;19;20197;-78
2024/02/01 00:28:08;;;;;;;13.23;5.13;;;11.00;99.90;;;;;;7130701;19;2846165;-79
2024/02/01 00:30:34;;;;;;;11.67;4.87;;;11.00;99.90;;;;;;7277725;19;20237;-78
2024/02/01 00:32:59;;;;;;;11.40;5.13;;;11.00;99.90;;;;;;7278431;19;20340;-79
2024/02/01 00:35:25;;;;;;;14.77;5.50;;;11.00;99.90;;;;;;7276563;19;20196;-78
2024/02/01 00:37:51;;;;;;;17.67;5.33;;;11.00;99.90;;;;;;7296341;19;20200;-79
2024/02/01 00:40:17;;;;;;;14.53;5.77;;;11.00;99.90;;;;;;7287938;19;20199;-79
2024/02/01 00:42:42;;;;;;;11.87;5.43;;;11.00;99.90;;;;;;7277164;19;20186;-79
2024/02/01 00:45:08;;;;;;;16.60;6.03;;;10.90;99.90;;;;;;7276837;19;20536;-78
2024/02/01 00:47:34;;;;;;;16.67;5.90;;;10.80;99.90;;;;;;7275808;19;20201;-78
2024/02/01 00:50:00;;;;;;;17.20;5.80;;;10.80;99.90;;;;;;7276836;19;20200;-79
2024/02/01 00:52:26;;;;;;;15.87;6.03;;;10.70;99.90;;;;;;7277029;19;20576;-78
2024/02/01 00:54:52;;;;;;;14.80;6.47;;;10.70;99.90;;;;;;7287296;19;20577;-79
2024/02/01 00:57:18;;;;;;;18.47;6.83;;;10.80;99.90;;;;;;7295096;19;20187;-79
2024/02/01 00:59:43;;;;;;;19.57;6.73;;;10.70;99.90;;;;;;7277984;19;20191;-78
2024/02/01 01:02:09;;;;;;;12.97;6.53;;;10.70;99.90;;;;;;7274964;19;20202;-79
2024/02/01 01:04:35;;;;;;;17.10;6.57;;;10.60;99.90;;;;;;7277563;19;20678;-79
2024/02/01 01:07:00;;;;;;;15.53;7.00;;;10.50;99.90;;;;;;7277344;19;20197;-78
2024/02/01 01:09:27;;;;;;;15.80;7.07;;;10.50;99.90;;;;;;7276882;19;20192;-79
2024/02/01 01:11:53;;;;;;;17.87;7.13;;;10.60;99.90;;;;;;7276619;19;20189;-79
2024/02/01 01:14:19;;;;;;;17.37;7.10;;;10.70;99.90;;;;;;7299219;19;20285;-79
2024/02/01 01:16:45;;;;;;;17.87;7.17;;;10.60;99.90;;;;;;7277231;19;20279;-79
2024/02/01 01:19:10;;;;;;;14.83;7.47;;;10.70;99.90;;;;;;7277811;19;20200;-79
2024/02/01 01:21:36;;;;;;;19.00;7.90;;;10.80;99.90;;;;;;7275374;19;20201;-79
2024/02/01 01:24:02;;;;;;;19.90;7.97;;;10.70;99.90;;;;;;7276530;19;20200;-79
2024/02/01 01:26:28;;;;;;;19.70;8.23;;;10.60;99.90;;;;;;7277383;19;20648;-79
2024/02/01 01:28:54;;;;;;;23.50;8.23;;;10.60;99.90;;;;;;7281541;19;20204;-80
2024/02/01 01:31:19;;;;;;;19.23;8.30;;;10.60;99.90;;;;;;7303861;19;20191;-79
2024/02/01 01:33:45;;;;;;;20.10;8.43;;;10.60;99.90;;;;;;7282609;19;20216;-79
2024/02/01 01:36:11;;;;;;;23.60;9.03;;;10.60;99.90;;;;;;7282402;19;20229;-79
2024/02/01 01:38:37;;;;;;;21.70;9.13;;;10.60;99.90;;;;;;7282377;19;20181;-79
2024/02/01 01:41:03;;;;;;;21.63;8.87;;;10.60;99.90;;;;;;7282297;19;20214;-79
2024/02/01 01:43:29;;;;;;;22.27;9.37;;;10.60;99.90;;;;;;7280540;19;20189;-80
2024/02/01 01:46:12;;;;;;;18.70;9.57;;;10.60;99.90;;;;;;7282962;19;20189;-79
2024/02/01 01:48:39;;;;;;;19.37;9.10;;;10.60;99.90;;;;;;7282501;19;20284;-79
2024/02/01 01:51:05;;;;;;;22.80;9.97;;;10.60;99.90;;;;;;7282717;19;20189;-80
2024/02/01 01:53:34;;;;;;;22.83;9.57;;;10.50;99.90;;;;;;7283796;19;20180;-79
2024/02/01 01:56:01;;;;;;;19.70;10.47;;;10.60;99.90;;;;;;7277480;19;20536;-80
2024/02/01 01:58:29;;;;;;;20.00;10.13;;;10.60;99.90;;;;;;7281418;19;20201;-79
2024/02/01 02:00:56;;;;;;;20.13;10.27;;;10.60;99.90;;;;;;7280810;19;20719;-79
2024/02/01 02:03:27;;;;;;;23.53;10.97;;;10.60;99.90;;;;;;7289503;19;20184;-80
2024/02/01 02:05:54;;;;;;;20.53;10.60;;;10.50;99.90;;;;;;7289691;19;20205;-79
2024/02/01 02:08:21;;;;;;;21.53;10.53;;;10.40;99.90;;;;;;7301442;19;20663;-80
2024/02/01 02:10:47;;;;;;;21.97;11.33;;;10.40;99.90;;;;;;7283222;19;20693;-80
2024/02/01 02:13:13;;;;;;;18.03;10.33;;;10.40;99.90;;;;;;7281642;19;20184;-80
2024/02/01 02:15:39;;;;;;;19.27;9.93;;;10.50;99.90;;;;;;7280394;19;20610;-80
2024/02/01 02:18:09;;;;;;;16.43;10.17;;;10.50;99.90;;;;;;7279920;19;20196;-80
2024/02/01 02:20:40;;;;;;;19.13;10.97;;;10.50;99.90;;;;;;7280832;19;20543;-80
2024/02/01 02:23:07;;;;;;;20.83;10.47;;;10.50;99.90;;;;;;7280070;19;20196;-80
2024/02/01 02:25:33;;;;;;;20.40;10.43;;;10.50;99.90;;;;;;7279782;19;20596;-80
2024/02/01 02:27:59;;;;;;;19.77;11.37;;;10.60;99.90;;;;;;7279263;19;20312;-80
2024/02/01 02:30:25;;;;;;;23.13;11.80;;;10.60;99.90;;;;;;7280136;19;20279;-80
2024/02/01 02:32:51;;;;;;;20.63;11.23;;;10.60;99.90;;;;;;7303783;19;20699;-80
2024/02/01 02:35:17;;;;;;;19.13;10.70;;;10.60;99.90;;;;;;7281530;19;20195;-80
2024/02/01 02:37:47;;;;;;;20.67;11.13;;;10.50;99.90;;;;;;7278222;19;20188;-80
2024/02/01 02:40:15;;;;;;;18.90;10.63;;;10.50;99.90;;;;;;7281409;19;20177;-80
2024/02/01 02:42:42;;;;;;;20.73;10.87;;;10.50;99.90;;;;;;7280515;19;20267;-79
2024/02/01 02:45:09;;;;;;;22.63;11.10;;;10.50;99.90;;;;;;7280059;19;20193;-80
2024/02/01 02:47:35;;;;;;;19.50;10.77;;;10.50;99.90;;;;;;7280838;19;20209;-79
2024/02/01 02:50:01;;;;;;;19.50;10.67;;;10.50;99.90;;;;;;7278432;19;20189;-79
2024/02/01 02:52:27;;;;;;;18.50;10.57;;;10.60;99.90;;;;;;7281267;19;20216;-79
2024/02/01 02:54:52;;;;;;;22.63;11.30;;;10.60;99.90;;;;;;7287741;19;20197;-79
2024/02/01 02:57:18;;;;;;;16.40;10.30;;;10.60;99.90;;;;;;7301658;19;20184;-79
2024/02/01 02:59:44;;;;;;;18.13;10.57;;;10.60;99.90;;;;;;7280363;19;20193;-79
2024/02/01 03:02:10;;;;;;;20.77;10.33;;;10.60;99.90;;;;;;7278326;19;20556;-80
2024/02/01 03:04:36;;;;;;;18.00;10.03;;;10.60;99.90;;;;;;7280459;19;20200;-80
2024/02/01 03:07:02;;;;;;;18.67;10.07;;;10.70;99.90;;;;;;7280103;19;20744;-80
2024/02/01 03:09:27;;;;;;;18.63;9.93;;;10.60;99.90;;;;;;7279636;19;20209;-80
2024/02/01 03:11:53;;;;;;;18.97;10.43;;;10.70;99.90;;;;;;7282175;19;20664;-79
2024/02/01 03:14:19;;;;;;;19.50;10.07;;;10.70;99.90;;;;;;7302133;19;20188;-80
2024/02/01 03:16:46;;;;;;;17.87;10.10;;;10.80;99.90;;;;;;7279097;19;20184;-80
2024/02/01 03:19:12;;;;;;;18.60;9.90;;;10.80;99.90;;;;;;7279680;19;20791;-80
2024/02/01 03:21:38;;;;;;;16.97;9.57;;;10.80;99.90;;;;;;7278909;19;20189;-80
2024/02/01 03:24:04;;;;;;;19.10;10.33;;;10.90;99.90;;;;;;7279211;19;20244;-80
2024/02/01 03:26:34;;;;;;;18.17;9.80;;;10.90;99.90;;;;;;7280109;19;20191;-80
2024/02/01 03:29:01;;;;;;;17.97;9.77;;;11.00;99.90;;;;;;7278445;19;20296;-80
2024/02/01 03:31:33;;;;;;;16.77;9.87;;;11.10;99.90;;;;;;7279271;19;20190;-80
2024/02/01 03:34:05;;;;;;;17.27;10.13;;;11.30;99.90;;;;;;7279992;19;20189;-79
2024/02/01 03:36:33;;;;;;;15.43;9.97;;;11.30;99.90;;;;;;7278247;19;20185;-79
2024/02/01 03:38:59;;;;;;;17.00;9.93;;;11.30;99.90;;;;;;7278966;19;20189;-80
2024/02/01 03:41:25;;;;;;;17.77;10.10;;;11.40;99.90;;;;;;7279742;19;20203;-79
2024/02/01 03:43:52;;;;;;;18.10;10.10;;;11.30;99.90;;;;;;7302380;19;20604;-79
2024/02/01 03:46:18;;;;;;;16.10;10.07;;;11.20;99.90;;;;;;7278823;19;20186;-79
2024/02/01 03:48:43;;;;;;;17.53;9.43;;;11.20;99.90;;;;;;7277022;19;20197;-79
2024/02/01 03:51:11;;;;;;;15.47;9.13;;;11.20;99.90;;;;;;7278432;19;20182;-80
2024/02/01 03:53:36;;;;;;;15.80;9.60;;;11.30;99.90;;;;;;7278194;19;20608;-80
2024/02/01 03:56:03;;;;;;;18.13;9.60;;;11.40;99.90;;;;;;7277874;19;20216;-80
2024/02/01 03:58:32;;;;;;;14.93;9.07;;;11.40;99.90;;;;;;7280242;19;20658;-80
2024/02/01 04:01:01;;;;;;;18.70;10.00;;;11.40;99.90;;;;;;7276742;19;20676;-79
2024/02/01 04:03:27;;;;;;;15.57;8.93;;;11.30;99.90;;;;;;7278085;19;20189;-79
2024/02/01 04:05:53;;;;;;;15.27;9.23;;;11.40;99.90;;;;;;7288376;19;20198;-79
2024/02/01 04:08:21;;;;;;;15.90;9.57;;;11.30;99.90;;;;;;7300305;19;20189;-79
2024/02/01 04:10:46;;;;;;;15.17;8.70;;;11.40;99.90;;;;;;7278899;19;20210;-80
2024/02/01 04:13:12;;;;;;;17.07;9.50;;;11.40;99.90;;;;;;7277481;19;20180;-79
2024/02/01 04:15:38;;;;;;;16.93;9.60;;;11.50;99.90;;;;;;7278548;19;20649;-79
2024/02/01 04:18:06;;;;;;;17.23;10.37;;;11.60;99.90;;;;;;7278134;19;20181;-80
2024/02/01 04:20:31;;;;;;;16.50;9.77;;;11.60;99.90;;;;;;7277816;19;20282;-80
2024/02/01 04:22:57;;;;;;;17.03;10.43;;;11.70;99.90;;;;;;7278748;19;20261;-80
2024/02/01 04:25:24;;;;;;;18.00;9.93;;;11.60;99.90;;;;;;7285084;19;20194;-79
2024/02/01 04:27:54;;;;;;;17.20;10.67;;;11.70;99.90;;;;;;7299501;19;20770;-79
2024/02/01 04:30:20;;;;;;;17.23;11.07;;;11.80;99.90;;;;;;7277505;19;20200;-79
2024/02/01 04:32:47;;;;;;;18.67;10.23;;;11.70;99.90;;;;;;7277282;19;20209;-79
2024/02/01 04:35:14;;;;;;;20.93;10.77;;;11.70;99.90;;;;;;7276423;19;20203;-80
2024/02/01 04:37:40;;;;;;;17.73;10.90;;;11.70;99.90;;;;;;7277532;19;20200;-79
2024/02/01 04:40:08;;;;;;;17.40;11.53;;;11.70;99.90;;;;;;7278376;19;20553;-79
2024/02/01 04:42:35;;;;;;;19.00;11.40;;;11.70;99.90;;;;;;7276256;19;20209;-79
2024/02/01 04:45:05;;;;;;;20.83;11.63;;;11.70;99.90;;;;;;7276426;19;20215;-80
2024/02/01 04:47:34;;;;;;;20.43;11.57;;;11.70;99.90;;;;;;7277204;19;21071;-79
2024/02/01 04:50:01;;;;;;;23.97;12.33;;;11.70;99.90;;;;;;7273662;19;20198;-79
2024/02/01 04:52:27;;;;;;;21.87;12.70;;;11.70;99.90;;;;;;7274649;19;20253;-79
2024/02/01 04:54:53;;;;;;;24.37;13.27;;;11.80;99.90;;;;;;7285575;19;20741;-80
2024/02/01 04:57:20;;;;;;;26.13;13.50;;;11.80;99.90;;;;;;7299060;19;20752;-80
2024/02/01 04:59:47;;;;;;;22.00;13.33;;;11.90;99.90;;;;;;7276235;19;20727;-80
2024/02/01 05:02:15;;;;;;;25.17;13.73;;;11.90;99.90;;;;;;7282050;19;20702;-79
2024/02/01 05:04:42;;;;;;;25.97;13.77;;;11.90;99.90;;;;;;7282633;19;20204;-79
2024/02/01 05:07:07;;;;;;;31.90;15.30;;;12.00;99.90;;;;;;7284254;19;20565;-80
2024/02/01 05:09:34;;;;;;;31.13;16.03;;;12.00;99.90;;;;;;7281743;19;20221;-80
2024/02/01 05:12:01;;;;;;;30.90;15.47;;;12.00;99.90;;;;;;7283287;19;20194;-80
2024/02/01 05:14:27;;;;;;;29.73;15.77;;;12.10;99.90;;;;;;7283377;19;20189;-80
2024/02/01 05:16:53;;;;;;;30.63;16.13;;;12.00;99.90;;;;;;7289449;19;20193;-80
2024/02/01 05:19:20;;;;;;;32.00;17.03;;;12.00;99.90;;;;;;7307158;19;20193;-79
2024/02/01 05:21:47;;;;;;;34.30;17.27;;;12.10;99.90;;;;;;7282810;19;20189;-79
2024/02/01 05:24:13;;;;;;;40.77;18.33;;;12.10;99.90;;;;;;7285921;19;20189;-79
2024/02/01 05:26:52;;;;;;;40.63;18.60;;;12.10;99.90;;;;;;7287335;19;20203;-80
2024/02/01 05:29:18;;;;;;;38.23;19.00;;;12.10;99.90;;;;;;7286119;19;20208;-79
2024/02/01 05:31:47;;;;;;;45.20;20.30;;;12.00;99.90;;;;;;7287863;19;20215;-79
2024/02/01 05:34:17;;;;;;;37.07;19.37;;;12.10;99.90;;;;;;7288053;19;20251;-79
2024/02/01 05:36:45;;;;;;;44.10;21.27;;;12.10;99.90;;;;;;7286199;19;20201;-79
2024/02/01 05:39:24;;;;;;;43.30;20.37;;;12.20;99.90;;;;;;7280873;19;20214;-79
2024/02/01 05:41:54;;;;;;;44.13;21.13;;;12.20;99.90;;;;;;7283446;19;20591;-79
2024/02/01 05:44:20;;;;;;;46.53;21.17;;;12.20;99.90;;;;;;7284369;19;20675;-79
2024/02/01 05:46:53;;;;;;;49.77;20.07;;;12.20;99.90;;;;;;7282183;19;20230;-79
2024/02/01 05:49:26;;;;;;;35.83;15.50;;;11.90;99.90;;;;;;7287390;19;20182;-78
2024/02/01 05:51:53;;;;;;;39.10;14.07;;;11.40;99.90;;;;;;7284358;19;20524;-79
2024/02/01 05:54:21;;;;;;;22.80;7.50;;;10.90;99.90;;;;;;7306354;19;20221;-78
2024/02/01 05:56:48;;;;;;;22.90;6.10;;;10.60;99.90;;;;;;7285707;19;20212;-78
2024/02/01 05:59:15;;;;;;;21.27;5.60;;;10.40;99.90;;;;;;7281538;19;20186;-79
2024/02/01 06:01:42;;;;;;;25.60;5.83;;;10.20;99.90;;;;;;7281566;19;20177;-78
2024/02/01 06:04:09;;;;;;;24.03;6.00;;;10.00;99.90;;;;;;7281762;19;20185;-78
2024/02/01 06:06:39;;;;;;;22.23;5.87;;;10.10;99.90;;;;;;7279878;19;20191;-78
2024/02/01 06:09:11;;;;;;;17.83;4.40;;;10.00;99.90;;;;;;7279642;19;20188;-78
2024/02/01 06:11:47;;;;;;;17.00;4.60;;;9.90;99.90;;;;;;7282963;19;20250;-77
2024/02/01 06:14:14;;;;;;;26.63;5.13;;;9.70;99.90;;;;;;7282099;19;20196;-78
2024/02/01 06:16:43;;;;;;;25.57;3.70;;;9.70;99.90;;;;;;7282027;19;20604;-79
2024/02/01 06:19:09;;;;;;;18.93;4.50;;;9.60;99.90;;;;;;7281408;19;20191;-79
2024/02/01 06:21:35;;;;;;;24.13;5.40;;;9.50;99.90;;;;;;7282532;19;20302;-79
2024/02/01 06:24:01;;;;;;;19.23;6.07;;;9.60;99.90;;;;;;7281620;19;20187;-79
2024/02/01 06:26:29;;;;;;;15.30;3.50;;;9.50;99.90;;;;;;7278981;19;20197;-79
2024/02/01 06:28:59;;;;;;;16.57;3.53;;;9.40;99.90;;;;;;7280030;19;20204;-79
2024/02/01 06:31:26;;;;;;;23.97;5.50;;;9.30;99.90;;;;;;7282097;19;20211;-79
2024/02/01 06:33:55;;;;;;;21.27;5.90;;;9.30;99.90;;;;;;7301142;19;20255;-79
2024/02/01 06:36:23;;;;;;;23.73;4.90;;;9.40;99.90;;;;;;7303407;19;20704;-79
2024/02/01 06:41:29;;;;;;;19.30;4.03;;;9.70;99.90;;;;;;7258576;19;20298;-79
2024/02/01 06:44:09;;;;;;;25.30;6.90;;;9.80;99.90;;;;;;7280079;19;20204;-78
2024/02/01 06:52:24;;;;;;;31.73;8.40;;;9.90;99.90;;;;;;7282103;19;20564;-78
2024/02/01 06:57:48;;;;;;;19.30;4.33;;;10.10;99.90;;;;;;7179890;19;2004806;-78
2024/02/01 07:03:02;;;;;;;16.53;3.20;;;10.10;99.90;;;;;;7176143;19;2004817;-78
2024/02/01 07:08:34;;;;;;;14.67;3.40;;;10.00;99.90;;;;;;7280973;19;20196;-78
2024/02/01 07:13:57;;;;;;;17.70;3.10;;;10.20;99.90;;;;;;7281469;19;20204;-78
2024/02/01 07:16:35;;;;;;;17.27;3.73;;;10.30;99.90;;;;;;7267519;19;20202;-78
2024/02/01 07:19:23;;;;;;;20.00;3.47;;;10.40;99.90;;;;;;7280772;19;20188;-78
2024/02/01 07:24:38;;;;;;;17.77;3.60;;;10.60;99.90;;;;;;7172347;19;2004416;-78
2024/02/01 07:57:51;;;;;;;20.13;3.07;;;9.30;99.90;;;;;;7175705;19;2004822;-78
2024/02/01 08:00:19;;;;;;;19.57;4.07;;;9.40;99.90;;;;;;7277614;19;20743;-78
2024/02/01 08:02:52;;;;;;;21.43;4.13;;;9.30;99.90;;;;;;7276253;19;20195;-77
2024/02/01 08:08:04;;;;;;;23.50;4.77;;;9.10;99.90;;;;;;7176407;19;2004545;-78
2024/02/01 08:10:31;;;;;;;26.30;4.57;;;9.20;99.90;;;;;;7276978;19;20196;-77
2024/02/01 08:13:04;;;;;;;18.20;3.10;;;9.10;99.90;;;;;;7276792;19;20186;-77
2024/02/01 08:15:31;;;;;;;24.13;3.40;;;9.20;99.90;;;;;;7278382;19;20182;-78
2024/02/01 08:17:57;;;;;;;23.10;2.77;;;9.30;99.90;;;;;;7276701;19;20194;-78
2024/02/01 08:20:23;;;;;;;24.67;3.60;;;9.30;99.90;;;;;;7297911;19;20195;-77
2024/02/01 08:22:49;;;;;;;22.70;3.87;;;9.30;99.90;;;;;;7293382;19;20199;-77
2024/02/01 08:25:16;;;;;;;26.33;3.20;;;9.40;99.90;;;;;;7275810;19;20190;-78
2024/02/01 08:27:49;;;;;;;24.00;3.37;;;9.40;99.90;;;;;;7275975;19;20227;-78
2024/02/01 08:30:19;;;;;;;28.80;4.47;;;9.30;99.90;;;;;;7277756;19;20191;-77
2024/02/01 08:32:46;;;;;;;28.63;4.37;;;9.40;99.90;;;;;;7278013;19;20201;-78
2024/02/01 08:35:13;;;;;;;19.40;3.33;;;9.30;99.90;;;;;;7278049;19;20211;-77
2024/02/01 08:37:43;;;;;;;23.00;3.73;;;9.30;99.90;;;;;;7282910;19;20194;-78
2024/02/01 08:40:16;;;;;;;21.17;3.57;;;9.20;99.90;;;;;;7284020;19;20206;-78
2024/02/01 08:42:45;;;;;;;29.03;7.63;;;9.30;99.90;;;;;;7284048;19;20721;-78
2024/02/01 08:45:14;;;;;;;26.83;4.57;;;9.40;99.90;;;;;;7285042;19;20199;-78
2024/02/01 08:47:44;;;;;;;28.63;3.67;;;9.40;99.90;;;;;;7284123;19;20674;-78
2024/02/01 08:50:11;;;;;;;20.20;3.63;;;9.50;99.90;;;;;;7284334;19;20189;-78
2024/02/01 08:52:38;;;;;;;26.40;3.40;;;9.50;99.90;;;;;;7284403;19;20187;-77
2024/02/01 08:55:10;;;;;;;21.37;3.60;;;9.40;99.90;;;;;;7282577;19;20187;-78
2024/02/01 08:57:42;;;;;;;24.77;3.63;;;9.20;99.90;;;;;;7284569;19;20187;-77
2024/02/01 09:03:05;;;;;;;22.93;3.33;;;9.30;99.90;;;;;;7264510;19;20207;-78
2024/02/01 09:05:34;;;;;;;20.47;3.60;;;9.40;99.90;;;;;;7282527;19;20198;-78
2024/02/01 09:08:02;;;;;;;25.07;3.43;;;9.40;99.90;;;;;;7283010;19;20211;-78
2024/02/01 09:10:28;;;;;;;21.63;3.50;;;9.50;99.90;;;;;;7282457;19;20186;-77
2024/02/01 09:12:54;;;;;;;19.90;2.77;;;9.90;99.90;;;;;;7296088;19;20317;-78
2024/02/01 09:15:19;;;;;;;20.27;3.47;;;10.10;99.90;;;;;;7304752;19;20183;-78
2024/02/01 09:17:46;;;;;;;24.40;3.10;;;10.10;99.90;;;;;;7282145;19;20188;-78
2024/02/01 09:20:19;;;;;;;25.97;3.73;;;10.00;99.90;;;;;;7284405;19;20191;-78
2024/02/01 09:22:55;;;;;;;17.17;2.83;;;10.20;99.90;;;;;;7281051;19;20180;-78
2024/02/01 09:25:22;;;;;;;20.63;3.33;;;10.20;99.90;;;;;;7283493;19;20237;-78
2024/02/01 09:27:52;;;;;;;20.83;3.10;;;10.40;99.90;;;;;;7283001;19;20211;-77
2024/02/01 09:30:20;;;;;;;23.43;3.90;;;10.30;99.90;;;;;;7283060;19;20599;-78
2024/02/01 09:32:49;;;;;;;19.37;2.90;;;10.40;99.90;;;;;;7282130;19;20187;-78
2024/02/01 09:35:21;;;;;;;29.13;3.37;;;10.50;99.90;;;;;;7281719;19;20196;-77
2024/02/01 09:37:53;;;;;;;22.80;3.30;;;10.50;99.90;;;;;;7282251;19;20204;-78
2024/02/01 09:40:20;;;;;;;22.70;3.60;;;10.70;99.90;;;;;;7284147;19;20184;-78
2024/02/01 09:42:51;;;;;;;25.70;3.10;;;10.80;99.90;;;;;;7282396;19;20188;-77
2024/02/01 09:45:19;;;;;;;23.43;3.27;;;10.70;99.90;;;;;;7282811;19;20192;-77
2024/02/01 09:47:48;;;;;;;20.50;2.90;;;10.70;99.90;;;;;;7281807;19;20195;-77
2024/02/01 09:50:20;;;;;;;17.40;2.90;;;10.70;99.90;;;;;;7281868;19;20581;-78
2024/02/01 09:52:48;;;;;;;27.73;3.33;;;10.70;99.90;;;;;;7282710;19;20725;-78
2024/02/01 09:55:18;;;;;;;18.30;3.27;;;10.70;99.90;;;;;;7282510;19;20203;-78
2024/02/01 09:57:48;;;;;;;21.07;3.10;;;10.60;99.90;;;;;;7282559;19;20238;-77
2024/02/01 10:00:22;;;;;;;19.90;2.60;;;10.60;99.90;;;;;;7283065;19;20236;-78
2024/02/01 10:02:51;;;;;;;23.03;3.07;;;10.50;99.90;;;;;;7282160;19;20195;-78
2024/02/01 10:05:18;;;;;;;19.20;3.23;;;10.50;99.90;;;;;;7281460;19;20312;-77
2024/02/01 10:07:44;;;;;;;26.30;6.03;;;10.60;99.90;;;;;;7281951;19;20995;-77
2024/02/01 10:10:13;;;;;;;19.23;2.97;;;10.80;99.90;;;;;;7281107;19;20221;-78
2024/02/01 10:12:41;;;;;;;21.57;3.33;;;10.60;99.90;;;;;;7282007;19;20187;-77
2024/02/01 10:15:11;;;;;;;21.23;3.00;;;10.50;99.90;;;;;;7281299;19;20556;-78
2024/02/01 10:17:46;;;;;;;18.63;2.63;;;10.60;99.90;;;;;;7281672;19;20197;-78
2024/02/01 10:20:34;;;;;;;22.00;3.33;;;10.70;99.90;;;;;;7283787;19;20196;-77
2024/02/01 10:23:04;;;;;;;22.60;2.90;;;11.20;99.90;;;;;;7179104;19;2005994;-78
2024/02/01 10:25:34;;;;;;;15.63;3.13;;;11.90;99.90;;;;;;7280487;19;20200;-78
2024/02/01 10:28:04;;;;;;;19.23;4.70;;;12.70;99.90;;;;;;7279761;19;20189;-78
2024/02/01 10:30:36;;;;;;;25.23;3.30;;;14.10;99.90;;;;;;7281265;19;20685;-78
2024/02/01 10:33:02;;;;;;;21.60;4.00;;;14.50;99.90;;;;;;7282558;19;20188;-78
2024/02/01 10:35:32;;;;;;;22.93;3.53;;;15.50;99.90;;;;;;7281374;19;20313;-78
2024/02/01 10:38:01;;;;;;;18.40;3.20;;;15.10;99.90;;;;;;7281930;19;20196;-78
2024/02/01 10:40:39;;;;;;;16.17;2.60;;;15.30;99.90;;;;;;7281615;19;20290;-78
2024/02/01 10:43:06;;;;;;;12.57;2.97;;;15.40;99.90;;;;;;7279982;19;20193;-78
2024/02/01 10:45:37;;;;;;;16.97;3.10;;;15.40;99.90;;;;;;7279514;19;20279;-78
2024/02/01 10:48:10;;;;;;;22.10;5.07;;;15.30;99.90;;;;;;7280264;19;20250;-78
2024/02/01 10:50:39;;;;;;;24.63;6.20;;;15.80;99.90;;;;;;7279902;19;20267;-78
2024/02/01 10:53:11;;;;;;;20.40;3.70;;;17.00;99.90;;;;;;7281433;19;20494;-78
2024/02/01 10:55:40;;;;;;;18.77;2.93;;;17.50;99.90;;;;;;7280921;19;20196;-78
2024/02/01 10:58:13;;;;;;;15.20;3.57;;;18.00;99.90;;;;;;7279834;19;20188;-78
2024/02/01 11:00:42;;;;;;;23.27;5.87;;;18.50;99.90;;;;;;7281174;19;20193;-78
2024/02/01 11:03:15;;;;;;;17.40;4.53;;;19.30;99.90;;;;;;7280673;19;20218;-78
2024/02/01 11:05:41;;;;;;;26.03;9.20;;;19.80;99.90;;;;;;7279569;19;20683;-78
2024/02/01 11:08:17;;;;;;;24.93;7.27;;;20.20;99.90;;;;;;7280477;19;20219;-78
2024/02/01 11:10:59;;;;;;;18.57;3.20;;;20.60;99.90;;;;;;7279309;19;20383;-78
2024/02/01 11:13:29;;;;;;;17.67;5.03;;;20.70;99.90;;;;;;7258932;19;20205;-79
2024/02/01 11:15:56;;;;;;;19.07;4.40;;;21.30;97.30;;;;;;7281451;19;20200;-79
2024/02/01 11:18:22;;;;;;;14.70;3.10;;;21.40;96.20;;;;;;7300353;19;20380;-78
2024/02/01 11:21:02;;;;;;;17.20;2.90;;;21.10;97.30;;;;;;7281197;19;20269;-78
2024/02/01 11:23:38;;;;;;;12.53;2.93;;;21.40;96.00;;;;;;7177275;19;2004595;-79
2024/02/01 11:26:15;;;;;;;18.60;3.10;;;21.40;92.30;;;;;;7279963;19;20193;-78
2024/02/01 11:28:40;;;;;;;16.80;3.07;;;20.00;94.80;;;;;;7278082;19;20189;-78
2024/02/01 11:31:15;;;;;;;13.03;2.83;;;18.60;96.40;;;;;;7279827;19;20213;-78
2024/02/01 11:33:43;;;;;;;15.50;3.00;;;18.50;99.20;;;;;;7280080;19;20182;-78
2024/02/01 11:36:08;;;;;;;24.50;7.43;;;19.20;97.90;;;;;;7278358;19;20184;-78
2024/02/01 11:38:34;;;;;;;16.37;4.80;;;20.20;96.70;;;;;;7276979;19;20715;-78
2024/02/01 11:41:00;;;;;;;18.63;6.73;;;21.10;93.70;;;;;;7278189;19;20720;-78
2024/02/01 11:43:26;;;;;;;16.17;2.97;;;21.90;93.20;;;;;;7278065;19;20201;-79
2024/02/01 11:45:56;;;;;;;13.27;2.73;;;21.90;92.00;;;;;;7300707;19;20271;-78
2024/02/01 11:48:22;;;;;;;16.60;3.90;;;22.50;91.30;;;;;;7278953;19;20522;-78
2024/02/01 11:50:58;;;;;;;14.00;2.73;;;22.60;88.50;;;;;;7279476;19;20188;-78
2024/02/01 11:53:24;;;;;;;12.27;3.00;;;22.40;85.70;;;;;;7271410;19;20264;-78
2024/02/01 11:55:54;;;;;;;16.27;3.17;;;22.80;87.10;;;;;;7296615;19;20195;-79
2024/02/01 11:58:22;;;;;;;14.00;4.27;;;22.10;82.90;;;;;;7279443;19;20180;-78
2024/02/01 12:00:55;;;;;;;14.97;3.83;;;22.10;84.80;;;;;;7277955;19;20185;-78
2024/02/01 12:03:21;;;;;;;20.13;3.77;;;22.20;84.60;;;;;;7279146;19;20269;-78
2024/02/01 12:05:47;;;;;;;17.03;3.00;;;21.90;85.50;;;;;;7279412;19;20282;-78
2024/02/01 12:08:13;;;;;;;17.40;3.27;;;20.90;86.90;;;;;;7279620;19;20194;-78
2024/02/01 12:10:44;;;;;;;14.93;4.03;;;20.50;89.10;;;;;;7278158;19;20199;-78
2024/02/01 12:13:13;;;;;;;15.07;3.03;;;20.40;88.30;;;;;;7278035;19;20556;-78
2024/02/01 12:15:40;;;;;;;15.37;2.67;;;20.80;88.80;;;;;;7277534;19;20192;-78
2024/02/01 12:18:08;;;;;;;20.07;4.17;;;20.10;87.40;;;;;;7277490;19;20258;-77
2024/02/01 12:20:34;;;;;;;25.83;10.50;;;19.70;89.20;;;;;;7278461;19;20256;-77
2024/02/01 12:23:02;;;;;;;16.77;3.43;;;19.80;90.00;;;;;;7278028;19;20194;-77
2024/02/01 12:25:30;;;;;;;14.77;2.90;;;19.90;89.50;;;;;;7277037;19;20196;-77
2024/02/01 12:27:57;;;;;;;17.30;4.00;;;18.80;91.20;;;;;;7276901;19;20199;-78
2024/02/01 12:30:26;;;;;;;14.13;3.80;;;19.20;91.40;;;;;;7298562;19;20189;-78
2024/02/01 12:32:52;;;;;;;18.57;3.87;;;19.50;91.90;;;;;;7279287;19;20191;-78
2024/02/01 12:35:18;;;;;;;18.43;4.83;;;19.80;91.70;;;;;;7276400;19;20670;-78
2024/02/01 12:37:45;;;;;;;18.70;3.90;;;19.30;92.00;;;;;;7276222;19;20174;-78
2024/02/01 12:40:12;;;;;;;16.53;3.30;;;19.70;91.40;;;;;;7276102;19;20247;-78
2024/02/01 12:42:39;;;;;;;17.50;5.30;;;19.80;90.60;;;;;;7276728;19;20184;-78
2024/02/01 12:45:07;;;;;;;16.57;3.13;;;19.70;90.30;;;;;;7277180;19;20194;-78
2024/02/01 12:47:37;;;;;;;14.40;4.23;;;19.30;90.60;;;;;;7277069;19;20704;-78
2024/02/01 12:50:06;;;;;;;16.37;4.37;;;19.10;91.70;;;;;;7277449;19;20670;-78
2024/02/01 12:52:33;;;;;;;17.27;4.37;;;19.30;90.90;;;;;;7277079;19;20276;-77
2024/02/01 12:55:00;;;;;;;16.67;3.70;;;19.40;90.50;;;;;;7276757;19;20565;-78
2024/02/01 12:57:29;;;;;;;16.30;3.50;;;19.40;90.80;;;;;;7275570;19;21031;-78
2024/02/01 12:59:58;;;;;;;15.27;3.00;;;19.30;90.50;;;;;;7281195;19;20197;-78
2024/02/01 13:02:27;;;;;;;17.67;3.50;;;18.60;92.10;;;;;;7294093;19;20189;-78
2024/02/01 13:04:53;;;;;;;15.23;3.10;;;18.80;92.40;;;;;;7298406;19;20275;-78
2024/02/01 13:07:22;;;;;;;16.43;3.30;;;18.80;92.10;;;;;;7277227;19;20193;-79
2024/02/01 13:09:48;;;;;;;16.20;3.20;;;18.90;92.20;;;;;;7275600;19;20218;-78
2024/02/01 13:12:23;;;;;;;13.80;3.77;;;19.10;91.60;;;;;;7276227;19;20258;-78
2024/02/01 13:15:00;;;;;;;18.47;4.63;;;18.80;92.90;;;;;;7276898;19;20205;-78
2024/02/01 13:17:35;;;;;;;13.77;2.80;;;18.80;93.20;;;;;;7253706;19;20735;-79
2024/02/01 13:20:03;;;;;;;11.67;2.60;;;19.00;91.90;;;;;;7275785;19;20247;-78
2024/02/01 13:22:29;;;;;;;15.60;3.43;;;18.80;91.90;;;;;;7278220;19;20743;-78
2024/02/01 13:24:55;;;;;;;18.00;4.27;;;18.60;92.80;;;;;;7284944;19;20194;-78
2024/02/01 13:27:21;;;;;;;17.53;4.87;;;18.30;93.70;;;;;;7305195;19;20197;-78
2024/02/01 13:29:47;;;;;;;20.03;6.17;;;18.30;94.90;;;;;;7282945;19;20213;-78
2024/02/01 13:32:15;;;;;;;19.37;6.23;;;18.00;94.60;;;;;;7283656;19;20192;-78
2024/02/01 13:34:43;;;;;;;21.40;5.83;;;17.80;93.40;;;;;;7282131;19;20308;-78
2024/02/01 13:37:10;;;;;;;13.80;2.83;;;17.50;94.40;;;;;;7281888;19;20201;-78
2024/02/01 13:39:45;;;;;;;20.23;3.10;;;17.30;95.70;;;;;;7283505;19;20177;-77